createdAt,value
2023-01-27T00:00:26.408Z,100.00
2023-01-27T00:02:52.961Z,100.00
2023-01-27T00:05:19.472Z,100.00
2023-01-27T00:07:46.819Z,100.00
2023-01-27T00:10:16.197Z,100.00
2023-01-27T00:13:02.882Z,100.00
2023-01-27T00:15:30.545Z,100.00
2023-01-27T00:17:57.215Z,100.00
2023-01-27T00:20:43.105Z,100.00
2023-01-27T00:23:37.109Z,100.00
2023-01-27T00:26:08.857Z,100.00
2023-01-27T00:28:36.517Z,100.00
2023-01-27T00:31:04.167Z,100.00
2023-01-27T00:33:30.640Z,100.00
2023-01-27T00:36:03.435Z,100.00
2023-01-27T00:38:31.744Z,100.00
2023-01-27T00:41:17.139Z,100.00
2023-01-27T00:43:43.571Z,100.00
2023-01-27T00:46:10.047Z,100.00
2023-01-27T00:48:36.558Z,100.00
2023-01-27T00:51:03.091Z,100.00
2023-01-27T00:53:29.770Z,100.00
2023-01-27T00:55:58.087Z,100.00
2023-01-27T00:58:28.121Z,100.00
2023-01-27T01:00:59.675Z,100.00
2023-01-27T01:03:27.397Z,100.00
2023-01-27T01:05:53.870Z,100.00
2023-01-27T01:08:20.324Z,100.00
2023-01-27T01:10:46.753Z,100.00
2023-01-27T01:13:13.180Z,100.00
2023-01-27T01:15:41.246Z,100.00
2023-01-27T01:18:10.091Z,100.00
2023-01-27T01:20:43.145Z,100.00
2023-01-27T01:23:10.181Z,100.00
2023-01-27T01:25:36.596Z,100.00
2023-01-27T01:28:05.537Z,100.00
2023-01-27T01:30:34.659Z,100.00
2023-01-27T01:33:01.710Z,100.00
2023-01-27T01:35:29.533Z,100.00
2023-01-27T01:37:56.001Z,100.00
2023-01-27T01:40:25.516Z,100.00
2023-01-27T01:43:02.509Z,100.00
2023-01-27T01:45:51.312Z,100.00
2023-01-27T01:48:48.828Z,100.00
2023-01-27T01:51:34.917Z,100.00
2023-01-27T01:54:11.869Z,100.00
2023-01-27T01:56:49.672Z,100.00
2023-01-27T01:59:26.951Z,100.00
2023-01-27T02:01:57.007Z,100.00
2023-01-27T02:04:29.091Z,100.00
2023-01-27T02:07:07.607Z,100.00
2023-01-27T02:09:34.498Z,100.00
2023-01-27T02:12:01.155Z,100.00
2023-01-27T02:14:27.614Z,100.00
2023-01-27T02:17:14.922Z,100.00
2023-01-27T02:20:12.179Z,100.00
2023-01-27T02:22:47.363Z,100.00
2023-01-27T02:25:26.181Z,100.00
2023-01-27T02:27:52.604Z,100.00
2023-01-27T02:30:19.115Z,100.00
2023-01-27T02:32:45.541Z,100.00
2023-01-27T02:35:17.019Z,100.00
2023-01-27T02:37:43.562Z,100.00
2023-01-27T03:06:38.792Z,100.00
2023-01-27T03:09:05.800Z,100.00
2023-01-27T03:11:51.097Z,100.00
2023-01-27T03:14:18.335Z,100.00
2023-01-27T03:17:05.587Z,100.00
2023-01-27T03:19:32.290Z,100.00
2023-01-27T03:22:01.760Z,100.00
2023-01-27T03:24:29.694Z,100.00
2023-01-27T03:26:59.535Z,100.00
2023-01-27T03:29:56.358Z,100.00
2023-01-27T03:32:24.799Z,100.00
2023-01-27T03:35:09.754Z,100.00
2023-01-27T03:37:55.207Z,100.00
2023-01-27T03:40:40.396Z,100.00
2023-01-27T03:43:25.744Z,100.00
2023-01-27T03:46:10.753Z,100.00
2023-01-27T03:48:38.040Z,100.00
2023-01-27T03:51:07.068Z,100.00
2023-01-27T03:53:34.436Z,100.00
2023-01-27T03:56:01.015Z,100.00
2023-01-27T03:58:29.582Z,100.00
2023-01-27T04:00:58.364Z,100.00
2023-01-27T04:03:45.971Z,100.00
2023-01-27T04:06:33.695Z,100.00
2023-01-27T04:09:00.167Z,100.00
2023-01-27T04:11:45.254Z,100.00
2023-01-27T04:14:12.642Z,100.00
2023-01-27T04:16:39.143Z,100.00
2023-01-27T04:19:08.168Z,100.00
2023-01-27T04:21:34.991Z,100.00
2023-01-27T04:24:01.978Z,100.00
2023-01-27T04:26:33.183Z,100.00
2023-01-27T04:29:00.863Z,100.00
2023-01-27T04:31:27.342Z,100.00
2023-01-27T04:33:53.782Z,100.00
2023-01-27T04:36:20.211Z,100.00
2023-01-27T04:38:46.761Z,100.00
2023-01-27T04:41:13.453Z,100.00
2023-01-27T04:43:39.843Z,100.00
2023-01-27T04:46:06.533Z,100.00
2023-01-27T04:48:33.129Z,100.00
2023-01-27T04:50:59.530Z,100.00
2023-01-27T04:53:25.918Z,100.00
2023-01-27T04:55:52.311Z,100.00
2023-01-27T04:58:18.726Z,100.00
2023-01-27T05:00:45.243Z,100.00
2023-01-27T05:03:12.011Z,100.00
2023-01-27T05:05:38.974Z,100.00
2023-01-27T05:08:07.036Z,100.00
2023-01-27T05:10:33.607Z,100.00
2023-01-27T05:13:01.785Z,100.00
2023-01-27T05:15:29.400Z,100.00
2023-01-27T05:17:55.812Z,100.00
2023-01-27T05:20:22.657Z,100.00
2023-01-27T05:22:51.055Z,100.00
2023-01-27T05:25:17.707Z,100.00
2023-01-27T05:27:44.558Z,100.00
2023-01-27T05:30:11.444Z,100.00
2023-01-27T05:32:37.815Z,100.00
2023-01-27T05:35:04.537Z,100.00
2023-01-27T05:37:30.944Z,100.00
2023-01-27T05:39:58.645Z,100.00
2023-01-27T05:42:25.026Z,100.00
2023-01-27T05:44:51.446Z,100.00
2023-01-27T05:47:17.869Z,100.00
2023-01-27T05:49:44.257Z,100.00
2023-01-27T05:52:10.658Z,100.00
2023-01-27T05:54:37.080Z,100.00
2023-01-27T05:57:03.473Z,100.00
2023-01-27T05:59:29.864Z,100.00
2023-01-27T06:01:56.265Z,100.00
2023-01-27T06:04:22.722Z,100.00
2023-01-27T06:06:49.149Z,100.00
2023-01-27T06:09:15.544Z,100.00
2023-01-27T06:11:42.008Z,100.00
2023-01-27T06:14:08.752Z,100.00
2023-01-27T06:16:35.196Z,100.00
2023-01-27T06:19:01.611Z,100.00
2023-01-27T06:21:28.032Z,100.00
2023-01-27T06:23:54.489Z,100.00
2023-01-27T06:26:20.989Z,100.00
2023-01-27T06:28:47.594Z,100.00
2023-01-27T06:31:17.460Z,100.00
2023-01-27T06:33:44.260Z,100.00
2023-01-27T06:36:17.396Z,100.00
2023-01-27T06:38:44.677Z,100.00
2023-01-27T06:41:11.341Z,100.00
2023-01-27T06:43:37.750Z,100.00
2023-01-27T06:46:05.900Z,100.00
2023-01-27T06:48:32.652Z,100.00
2023-01-27T06:51:00.138Z,100.00
2023-01-27T06:53:26.722Z,100.00
2023-01-27T06:56:00.450Z,100.00
2023-01-27T06:58:27.659Z,100.00
2023-01-27T07:00:54.763Z,100.00
2023-01-27T07:03:21.335Z,100.00
2023-01-27T07:05:47.774Z,100.00
2023-01-27T07:08:14.149Z,100.00
2023-01-27T07:10:40.558Z,100.00
2023-01-27T07:13:09.112Z,100.00
2023-01-27T07:15:35.669Z,100.00
2023-01-27T07:18:02.642Z,100.00
2023-01-27T07:20:29.702Z,100.00
2023-01-27T07:23:00.066Z,100.00
2023-01-27T07:25:26.641Z,100.00
2023-01-27T07:27:53.432Z,100.00
2023-01-27T07:30:19.904Z,100.00
2023-01-27T07:32:46.320Z,100.00
2023-01-27T07:35:12.728Z,100.00
2023-01-27T07:37:39.128Z,100.00
2023-01-27T07:40:06.033Z,100.00
2023-01-27T07:42:32.440Z,100.00
2023-01-27T07:44:59.083Z,100.00
2023-01-27T07:47:25.524Z,100.00
2023-01-27T07:49:51.941Z,100.00
2023-01-27T07:52:18.340Z,100.00
2023-01-27T07:54:44.808Z,100.00
2023-01-27T07:57:11.216Z,100.00
2023-01-27T07:59:37.617Z,100.00
2023-01-27T08:02:04.053Z,100.00
2023-01-27T08:04:33.156Z,100.00
2023-01-27T08:07:04.006Z,100.00
2023-01-27T08:09:30.397Z,100.00
2023-01-27T08:11:56.788Z,100.00
2023-01-27T08:14:23.179Z,100.00
2023-01-27T08:16:49.601Z,100.00
2023-01-27T08:20:00.168Z,100.00
2023-01-27T08:22:28.585Z,100.00
2023-01-27T08:24:55.072Z,100.00
2023-01-27T08:27:21.871Z,100.00
2023-01-27T08:29:48.491Z,100.00
2023-01-27T08:32:15.291Z,100.00
2023-01-27T08:34:41.886Z,100.00
2023-01-27T08:37:08.837Z,100.00
2023-01-27T08:39:35.235Z,100.00
2023-01-27T08:42:01.680Z,100.00
2023-01-27T08:44:28.964Z,100.00
2023-01-27T08:46:55.379Z,100.00
2023-01-27T08:49:21.802Z,100.00
2023-01-27T08:51:48.345Z,100.00
2023-01-27T08:54:15.015Z,100.00
2023-01-27T08:56:41.438Z,100.00
2023-01-27T08:59:07.833Z,100.00
2023-01-27T09:01:34.294Z,100.00
2023-01-27T09:04:00.708Z,100.00
2023-01-27T09:06:27.140Z,100.00
2023-01-27T09:09:12.392Z,100.00
2023-01-27T09:11:41.678Z,100.00
2023-01-27T09:14:08.350Z,100.00
2023-01-27T09:16:34.841Z,100.00
2023-01-27T09:19:01.295Z,100.00
2023-01-27T09:21:27.858Z,100.00
2023-01-27T09:23:54.299Z,100.00
2023-01-27T09:26:20.705Z,100.00
2023-01-27T09:28:47.101Z,100.00
2023-01-27T09:31:13.632Z,100.00
2023-01-27T09:33:40.080Z,100.00
2023-01-27T09:36:17.534Z,100.00
2023-01-27T09:38:52.408Z,100.00
2023-01-27T09:41:42.883Z,100.00
2023-01-27T09:44:44.754Z,100.00
2023-01-27T09:47:40.631Z,100.00
2023-01-27T09:50:44.769Z,100.00
2023-01-27T09:53:44.821Z,100.00
2023-01-27T09:56:43.489Z,100.00
2023-01-27T09:59:29.030Z,100.00
2023-01-27T10:02:18.116Z,100.00
2023-01-27T10:04:59.792Z,100.00
2023-01-27T10:08:01.446Z,100.00
2023-01-27T10:10:44.944Z,100.00
2023-01-27T10:13:23.700Z,100.00
2023-01-27T10:16:04.308Z,100.00
2023-01-27T10:18:57.438Z,100.00
2023-01-27T10:21:43.556Z,100.00
2023-01-27T10:24:38.539Z,100.00
2023-01-27T10:27:17.988Z,100.00
2023-01-27T10:29:57.342Z,100.00
2023-01-27T10:32:41.200Z,100.00
2023-01-27T10:35:13.260Z,100.00
2023-01-27T10:38:04.757Z,100.00
2023-01-27T10:40:52.963Z,100.00
2023-01-27T10:43:35.963Z,100.00
2023-01-27T10:46:02.341Z,100.00
2023-01-27T10:48:43.653Z,100.00
2023-01-27T10:51:32.565Z,100.00
2023-01-27T10:54:25.336Z,100.00
2023-01-27T10:56:58.310Z,100.00
2023-01-27T11:00:05.264Z,100.00
2023-01-27T11:02:42.022Z,100.00
2023-01-27T11:05:11.147Z,100.00
2023-01-27T11:07:51.042Z,100.00
2023-01-27T11:10:19.540Z,100.00
2023-01-27T11:12:49.509Z,100.00
2023-01-27T11:15:24.047Z,100.00
2023-01-27T11:17:57.704Z,100.00
2023-01-27T11:20:31.826Z,100.00
2023-01-27T11:23:05.288Z,100.00
2023-01-27T11:25:47.243Z,100.00
2023-01-27T11:28:38.857Z,100.00
2023-01-27T11:31:29.428Z,100.00
2023-01-27T11:34:13.154Z,100.00
2023-01-27T11:36:39.562Z,100.00
2023-01-27T11:39:06.713Z,100.00
2023-01-27T11:41:40.034Z,100.00
2023-01-27T11:44:21.080Z,100.00
2023-01-27T11:46:48.994Z,100.00
2023-01-27T11:49:21.801Z,100.00
2023-01-27T11:51:49.262Z,100.00
2023-01-27T11:54:23.686Z,100.00
2023-01-27T11:56:50.659Z,100.00
2023-01-27T11:59:34.681Z,100.00
2023-01-27T12:02:06.961Z,100.00
2023-01-27T12:04:52.052Z,100.00
2023-01-27T12:07:39.861Z,100.00
2023-01-27T12:10:28.090Z,100.00
2023-01-27T12:12:55.552Z,100.00
2023-01-27T12:15:25.632Z,100.00
2023-01-27T12:18:13.889Z,100.00
2023-01-27T12:20:49.128Z,100.00
2023-01-27T12:23:27.308Z,100.00
2023-01-27T12:25:57.792Z,100.00
2023-01-27T12:28:49.666Z,100.00
2023-01-27T12:31:31.492Z,100.00
2023-01-27T12:34:02.289Z,100.00
2023-01-27T12:36:30.334Z,100.00
2023-01-27T12:39:01.001Z,100.00
2023-01-27T12:41:29.214Z,100.00
2023-01-27T12:44:08.372Z,100.00
2023-01-27T12:46:34.892Z,100.00
2023-01-27T12:49:14.842Z,100.00
2023-01-27T12:51:51.515Z,100.00
2023-01-27T12:54:27.536Z,100.00
2023-01-27T12:57:00.738Z,100.00
2023-01-27T12:59:28.243Z,100.00
2023-01-27T13:02:12.187Z,100.00
2023-01-27T13:04:38.667Z,100.00
2023-01-27T13:07:11.653Z,100.00
2023-01-27T13:09:47.167Z,100.00
2023-01-27T13:12:21.090Z,100.00
2023-01-27T13:14:54.218Z,100.00
2023-01-27T13:17:54.109Z,100.00
2023-01-27T13:20:25.255Z,100.00
2023-01-27T13:22:56.195Z,100.00
2023-01-27T13:25:28.227Z,100.00
2023-01-27T13:27:59.195Z,100.00
2023-01-27T13:30:32.128Z,100.00
2023-01-27T13:33:06.915Z,100.00
2023-01-27T13:35:40.238Z,100.00
2023-01-27T13:38:37.739Z,100.00
2023-01-27T13:41:15.280Z,100.00
2023-01-27T13:43:55.307Z,100.00
2023-01-27T13:46:33.201Z,100.00
2023-01-27T13:49:04.936Z,100.00
2023-01-27T13:51:33.294Z,100.00
2023-01-27T13:54:02.507Z,100.00
2023-01-27T13:56:49.340Z,100.00
2023-01-27T13:59:40.442Z,100.00
2023-01-27T14:02:29.628Z,100.00
2023-01-27T14:05:06.821Z,100.00
2023-01-27T14:07:51.227Z,100.00
2023-01-27T14:10:41.324Z,100.00
2023-01-27T14:13:32.544Z,100.00
2023-01-27T14:16:09.771Z,100.00
2023-01-27T14:18:49.064Z,100.00
2023-01-27T14:21:43.988Z,100.00
2023-01-27T14:24:40.098Z,100.00
2023-01-27T14:27:16.160Z,100.00
2023-01-27T14:29:46.327Z,100.00
2023-01-27T14:32:26.253Z,100.00
2023-01-27T14:35:05.666Z,100.00
2023-01-27T14:37:45.569Z,100.00
2023-01-27T14:40:17.426Z,100.00
2023-01-27T14:42:59.511Z,100.00
2023-01-27T14:45:34.684Z,100.00
2023-01-27T14:48:19.616Z,100.00
2023-01-27T14:50:58.695Z,100.00
2023-01-27T14:53:34.276Z,100.00
2023-01-27T14:56:47.378Z,100.00
2023-01-27T14:59:53.056Z,100.00
2023-01-27T15:02:48.263Z,100.00
2023-01-27T15:05:32.598Z,100.00
2023-01-27T15:08:13.734Z,100.00
2023-01-27T15:10:58.905Z,100.00
2023-01-27T15:13:31.423Z,100.00
2023-01-27T15:16:19.373Z,100.00
2023-01-27T15:19:05.259Z,100.00
2023-01-27T15:21:45.567Z,100.00
2023-01-27T15:24:27.188Z,100.00
2023-01-27T15:26:54.571Z,100.00
2023-01-27T15:29:26.282Z,100.00
2023-01-27T15:32:12.641Z,100.00
2023-01-27T15:34:39.368Z,100.00
2023-01-27T15:37:19.419Z,100.00
2023-01-27T15:40:05.690Z,100.00
2023-01-27T15:43:06.537Z,100.00
2023-01-27T15:45:38.344Z,100.00
2023-01-27T15:48:14.774Z,100.00
2023-01-27T15:50:53.296Z,100.00
2023-01-27T15:53:33.419Z,100.00
2023-01-27T15:56:01.309Z,100.00
2023-01-27T15:58:45.981Z,100.00
2023-01-27T16:01:30.172Z,100.00
2023-01-27T16:04:12.965Z,100.00
2023-01-27T16:07:01.980Z,100.00
2023-01-27T16:09:35.108Z,100.00
2023-01-27T16:12:26.839Z,100.00
2023-01-27T16:15:15.582Z,100.00
2023-01-27T16:18:21.255Z,100.00
2023-01-27T16:21:08.348Z,100.00
2023-01-27T16:23:58.202Z,100.00
2023-01-27T16:26:37.437Z,100.00
2023-01-27T16:29:06.343Z,100.00
2023-01-27T16:31:32.772Z,100.00
2023-01-27T16:34:01.633Z,100.00
2023-01-27T16:36:31.206Z,100.00
2023-01-27T16:39:03.180Z,100.00
2023-01-27T16:41:35.978Z,100.00
2023-01-27T16:44:16.664Z,100.00
2023-01-27T16:46:48.269Z,100.00
2023-01-27T16:49:19.905Z,100.00
2023-01-27T16:51:55.198Z,100.00
2023-01-27T16:54:42.680Z,100.00
2023-01-27T16:57:27.611Z,100.00
2023-01-27T16:59:55.632Z,100.00
2023-01-27T17:02:26.526Z,100.00
2023-01-27T17:04:56.176Z,100.00
2023-01-27T17:07:22.737Z,100.00
2023-01-27T17:09:57.881Z,100.00
2023-01-27T17:12:34.181Z,100.00
2023-01-27T17:15:15.062Z,100.00
2023-01-27T17:17:42.220Z,100.00
2023-01-27T17:20:19.657Z,100.00
2023-01-27T17:22:47.347Z,100.00
2023-01-27T17:25:18.016Z,100.00
2023-01-27T17:27:45.388Z,100.00
2023-01-27T17:30:23.936Z,99.27
2023-01-27T17:33:01.933Z,99.59
2023-01-27T17:35:32.923Z,98.93
2023-01-27T17:38:16.638Z,98.50
2023-01-27T17:40:45.291Z,97.32
2023-01-27T17:43:32.067Z,96.94
2023-01-27T17:46:04.613Z,99.22
2023-01-27T17:48:38.260Z,97.32
2023-01-27T17:51:05.212Z,96.94
2023-01-27T17:53:40.086Z,97.29
2023-01-27T17:56:15.572Z,97.27
2023-01-27T17:58:45.369Z,97.51
2023-01-27T18:01:15.348Z,97.40
2023-01-27T18:03:41.813Z,96.70
2023-01-27T18:06:13.507Z,97.92
2023-01-27T18:08:48.525Z,97.57
2023-01-27T18:11:25.252Z,97.03
2023-01-27T18:13:54.135Z,98.13
2023-01-27T18:16:23.453Z,96.84
2023-01-27T18:18:50.226Z,97.43
2023-01-27T18:21:21.940Z,96.89
2023-01-27T18:23:49.760Z,96.75
2023-01-27T18:26:54.543Z,96.15
2023-01-27T18:29:35.020Z,96.99
2023-01-27T18:32:17.606Z,97.35
2023-01-27T18:34:49.289Z,97.71
2023-01-27T18:37:34.376Z,97.29
2023-01-27T18:40:17.799Z,96.53
2023-01-27T18:42:44.549Z,97.87
2023-01-27T18:45:12.417Z,97.46
2023-01-27T18:47:40.215Z,97.85
2023-01-27T18:50:19.261Z,97.17
2023-01-27T18:52:46.794Z,97.30
2023-01-27T18:55:24.622Z,96.90
2023-01-27T18:57:53.993Z,98.08
2023-01-27T19:00:37.434Z,97.04
2023-01-27T19:03:07.348Z,96.55
2023-01-27T19:05:35.697Z,97.09
2023-01-27T19:08:02.673Z,97.97
2023-01-27T19:10:32.004Z,97.58
2023-01-27T19:13:00.291Z,98.00
2023-01-27T19:15:30.182Z,98.31
2023-01-27T19:17:58.852Z,98.61
2023-01-27T19:20:28.113Z,97.59
2023-01-27T19:22:55.699Z,98.13
2023-01-27T19:25:24.563Z,98.52
2023-01-27T19:27:53.922Z,97.72
2023-01-27T19:30:26.269Z,97.29
2023-01-27T19:32:55.071Z,98.11
2023-01-27T19:35:27.492Z,98.33
2023-01-27T19:37:56.638Z,98.34
2023-01-27T19:40:25.925Z,97.43
2023-01-27T19:42:52.714Z,97.93
2023-01-27T19:45:20.130Z,97.52
2023-01-27T19:47:49.299Z,97.55
2023-01-27T19:50:23.282Z,96.83
2023-01-27T19:52:50.108Z,97.50
2023-01-27T19:55:18.242Z,98.23
2023-01-27T19:57:45.173Z,97.27
2023-01-27T20:00:21.628Z,97.04
2023-01-27T20:02:48.138Z,96.59
2023-01-27T20:05:15.030Z,96.32
2023-01-27T20:07:43.443Z,96.94
2023-01-27T20:10:33.495Z,96.79
2023-01-27T20:13:05.657Z,96.48
2023-01-27T20:15:36.920Z,95.95
2023-01-27T20:18:04.407Z,96.90
2023-01-27T20:20:30.802Z,96.08
2023-01-27T20:22:57.315Z,96.11
2023-01-27T20:25:26.253Z,95.91
2023-01-27T20:27:57.496Z,95.96
2023-01-27T20:30:26.363Z,95.81
2023-01-27T20:32:55.117Z,95.43
2023-01-27T20:35:22.839Z,96.46
2023-01-27T20:37:50.368Z,95.51
2023-01-27T20:40:22.527Z,94.86
2023-01-27T20:42:49.616Z,96.11
2023-01-27T20:45:16.989Z,95.50
2023-01-27T20:47:47.887Z,95.14
2023-01-27T20:50:14.777Z,95.14
2023-01-27T20:52:41.934Z,94.85
2023-01-27T20:55:09.530Z,94.18
2023-01-27T20:57:36.005Z,94.49
2023-01-27T21:00:03.132Z,94.15
2023-01-27T21:02:30.364Z,94.90
2023-01-27T21:04:57.124Z,94.02
2023-01-27T21:07:24.702Z,93.98
2023-01-27T21:09:53.313Z,94.13
2023-01-27T21:12:21.009Z,93.68
2023-01-27T21:14:47.407Z,93.43
2023-01-27T21:17:13.877Z,94.10
2023-01-27T21:19:40.269Z,93.27
2023-01-27T21:22:06.770Z,93.84
2023-01-27T21:24:33.515Z,93.17
2023-01-27T21:26:59.926Z,94.16
2023-01-27T21:29:26.365Z,93.61
2023-01-27T21:31:52.970Z,92.22
2023-01-27T21:34:19.820Z,92.42
2023-01-27T21:36:46.285Z,92.32
2023-01-27T21:39:12.862Z,92.62
2023-01-27T21:41:54.390Z,92.68
2023-01-27T21:44:41.756Z,91.82
2023-01-27T21:47:11.365Z,92.38
2023-01-27T21:49:58.578Z,92.37
2023-01-27T21:52:30.379Z,92.07
2023-01-27T21:54:56.791Z,92.78
2023-01-27T21:57:23.227Z,92.21
2023-01-27T21:59:49.630Z,92.46
2023-01-27T22:02:16.864Z,92.69
2023-01-27T22:04:43.798Z,92.18
2023-01-27T22:07:12.420Z,92.47
2023-01-27T22:09:39.667Z,93.01
2023-01-27T22:12:08.365Z,93.19
2023-01-27T22:14:35.020Z,92.20
2023-01-27T22:17:01.500Z,91.89
2023-01-27T22:19:29.253Z,92.28
2023-01-27T22:21:55.854Z,91.57
2023-01-27T22:24:22.478Z,91.50
2023-01-27T22:26:48.988Z,92.31
2023-01-27T22:29:15.816Z,91.81
2023-01-27T22:31:42.224Z,92.46
2023-01-27T22:34:09.660Z,91.70
2023-01-27T22:36:36.664Z,91.94
2023-01-27T22:39:03.988Z,91.53
2023-01-27T22:41:31.196Z,91.01
2023-01-27T22:43:57.677Z,90.90
2023-01-27T22:46:24.226Z,91.71
2023-01-27T22:48:50.647Z,92.73
2023-01-27T22:51:17.194Z,90.53
2023-01-27T22:53:43.956Z,91.29
2023-01-27T22:56:10.421Z,91.48
2023-01-27T22:58:36.870Z,91.31
2023-01-27T23:01:07.491Z,91.52
2023-01-27T23:03:34.035Z,91.36
2023-01-27T23:06:05.079Z,90.40
2023-01-27T23:08:32.784Z,89.89
2023-01-27T23:11:01.486Z,90.42
2023-01-27T23:13:31.751Z,91.32
2023-01-27T23:15:58.838Z,91.43
2023-01-27T23:18:25.273Z,90.58
2023-01-27T23:20:52.990Z,91.08
2023-01-27T23:23:19.648Z,90.94
2023-01-27T23:25:47.499Z,90.69
2023-01-27T23:28:16.094Z,90.69
2023-01-27T23:30:47.274Z,91.22
2023-01-27T23:33:15.003Z,91.38
2023-01-27T23:35:41.839Z,91.61
2023-01-27T23:38:19.343Z,90.92
2023-01-27T23:40:54.325Z,91.04
2023-01-27T23:43:22.096Z,91.31
2023-01-27T23:45:52.870Z,91.41
2023-01-27T23:48:19.821Z,91.49
2023-01-27T23:50:46.231Z,91.85
2023-01-27T23:53:12.929Z,90.42
2023-01-27T23:55:39.325Z,91.15
2023-01-27T23:58:06.323Z,91.50
